createdAt,value
2022-08-26T00:01:19.478Z,21.24
2022-08-26T00:04:12.017Z,21.23
2022-08-26T00:06:55.044Z,21.21
2022-08-26T00:09:40.166Z,21.20
2022-08-26T00:12:22.169Z,21.17
2022-08-26T00:15:20.453Z,21.15
2022-08-26T00:18:02.755Z,21.14
2022-08-26T00:20:45.470Z,21.12
2022-08-26T00:23:28.853Z,21.11
2022-08-26T00:26:11.125Z,21.09
2022-08-26T00:28:53.225Z,21.07
2022-08-26T00:31:35.178Z,21.05
2022-08-26T00:34:19.367Z,21.02
2022-08-26T00:37:01.764Z,21.00
2022-08-26T00:39:44.270Z,20.99
2022-08-26T00:42:28.008Z,20.95
2022-08-26T00:45:11.754Z,20.93
2022-08-26T00:48:01.425Z,20.91
2022-08-26T00:50:54.893Z,20.89
2022-08-26T00:53:42.230Z,20.87
2022-08-26T00:56:54.116Z,20.86
2022-08-26T00:59:36.535Z,20.85
2022-08-26T01:02:21.794Z,20.84
2022-08-26T01:05:05.025Z,20.83
2022-08-26T01:07:47.740Z,20.83
2022-08-26T01:10:32.093Z,20.81
2022-08-26T01:13:14.603Z,20.80
2022-08-26T01:16:00.397Z,20.77
2022-08-26T01:18:45.050Z,20.75
2022-08-26T01:21:29.444Z,20.73
2022-08-26T01:24:12.427Z,20.72
2022-08-26T01:27:02.710Z,20.69
2022-08-26T01:29:47.379Z,20.67
2022-08-26T01:32:33.483Z,20.66
2022-08-26T01:35:15.881Z,20.65
2022-08-26T01:37:58.495Z,20.62
2022-08-26T01:40:43.769Z,20.59
2022-08-26T01:43:27.942Z,20.57
2022-08-26T01:46:12.232Z,20.54
2022-08-26T01:48:57.445Z,20.50
2022-08-26T01:51:41.333Z,20.48
2022-08-26T01:54:25.125Z,20.45
2022-08-26T01:57:08.250Z,20.42
2022-08-26T01:59:51.735Z,20.38
2022-08-26T02:02:33.782Z,20.35
2022-08-26T02:05:20.336Z,20.33
2022-08-26T02:08:03.535Z,20.32
2022-08-26T02:10:46.024Z,20.31
2022-08-26T02:13:31.509Z,20.29
2022-08-26T02:16:17.960Z,20.27
2022-08-26T02:19:01.712Z,20.24
2022-08-26T02:21:51.971Z,20.21
2022-08-26T02:24:56.155Z,20.18
2022-08-26T02:27:38.155Z,20.15
2022-08-26T02:30:25.396Z,20.13
2022-08-26T02:33:08.237Z,20.10
2022-08-26T02:35:50.394Z,20.06
2022-08-26T02:38:33.007Z,20.01
2022-08-26T02:41:15.568Z,19.97
2022-08-26T02:44:00.589Z,19.93
2022-08-26T02:46:46.941Z,19.90
2022-08-26T02:49:30.727Z,19.86
2022-08-26T02:52:12.828Z,19.84
2022-08-26T02:54:55.266Z,19.83
2022-08-26T02:57:37.852Z,19.82
2022-08-26T03:00:20.304Z,19.79
2022-08-26T03:03:02.459Z,19.76
2022-08-26T03:05:44.724Z,19.74
2022-08-26T03:08:27.019Z,19.72
2022-08-26T03:11:09.480Z,19.71
2022-08-26T03:13:54.141Z,19.71
2022-08-26T03:16:37.981Z,19.72
2022-08-26T03:19:21.513Z,19.72
2022-08-26T03:22:05.047Z,19.69
2022-08-26T03:24:46.943Z,19.69
2022-08-26T03:27:28.839Z,19.69
2022-08-26T03:30:35.112Z,19.69
2022-08-26T03:33:17.412Z,19.68
2022-08-26T03:36:00.776Z,19.67
2022-08-26T03:38:43.661Z,19.64
2022-08-26T03:41:27.503Z,19.62
2022-08-26T03:44:09.501Z,19.61
2022-08-26T03:46:54.242Z,19.61
2022-08-26T03:49:37.559Z,19.59
2022-08-26T03:52:19.591Z,19.58
2022-08-26T03:55:01.589Z,19.56
2022-08-26T03:57:45.122Z,19.55
2022-08-26T04:00:27.031Z,19.51
2022-08-26T04:03:14.657Z,19.50
2022-08-26T04:06:00.131Z,19.48
2022-08-26T04:08:42.127Z,19.48
2022-08-26T04:11:28.649Z,19.46
2022-08-26T04:14:17.619Z,19.44
2022-08-26T04:17:05.119Z,19.48
2022-08-26T04:19:47.937Z,19.55
2022-08-26T04:22:29.835Z,19.60
2022-08-26T04:25:12.753Z,19.62
2022-08-26T04:27:55.180Z,19.62
2022-08-26T04:30:38.185Z,19.63
2022-08-26T04:33:32.521Z,19.65
2022-08-26T04:36:15.130Z,19.67
2022-08-26T04:38:57.797Z,19.69
2022-08-26T04:41:40.075Z,19.70
2022-08-26T04:44:27.688Z,19.72
2022-08-26T04:47:09.627Z,19.73
2022-08-26T04:49:57.875Z,19.72
2022-08-26T04:52:39.870Z,19.71
2022-08-26T04:55:25.330Z,19.74
2022-08-26T04:58:23.630Z,19.80
2022-08-26T05:01:06.044Z,19.87
2022-08-26T05:03:49.022Z,19.92
2022-08-26T05:06:30.955Z,19.93
2022-08-26T05:09:19.304Z,19.97
2022-08-26T05:12:01.300Z,20.01
2022-08-26T05:14:43.196Z,20.02
2022-08-26T05:17:27.371Z,20.00
2022-08-26T05:20:09.754Z,19.99
2022-08-26T05:22:52.775Z,20.01
2022-08-26T05:25:41.981Z,20.04
2022-08-26T05:28:23.882Z,20.08
2022-08-26T05:31:17.713Z,20.13
2022-08-26T05:34:03.649Z,20.21
2022-08-26T05:36:46.318Z,20.28
2022-08-26T05:39:28.213Z,20.34
2022-08-26T05:42:10.519Z,20.42
2022-08-26T05:44:55.783Z,20.48
2022-08-26T05:47:38.201Z,20.57
2022-08-26T05:50:23.319Z,20.66
2022-08-26T05:53:07.677Z,20.76
2022-08-26T05:55:52.797Z,20.87
2022-08-26T05:58:36.881Z,20.93
2022-08-26T06:01:21.947Z,21.00
2022-08-26T06:04:06.267Z,21.05
2022-08-26T06:06:48.578Z,21.09
2022-08-26T06:09:30.979Z,21.11
2022-08-26T06:12:13.183Z,21.15
2022-08-26T06:14:57.843Z,21.28
2022-08-26T06:17:39.818Z,21.45
2022-08-26T06:20:21.841Z,21.61
2022-08-26T06:23:23.089Z,21.80
2022-08-26T06:26:06.111Z,22.01
2022-08-26T06:28:48.007Z,22.16
2022-08-26T06:31:33.644Z,22.28
2022-08-26T06:34:20.197Z,22.42
2022-08-26T06:37:03.633Z,22.53
2022-08-26T06:39:46.342Z,22.62
2022-08-26T06:42:28.134Z,22.74
2022-08-26T06:45:10.691Z,22.91
2022-08-26T06:47:53.155Z,23.08
2022-08-26T06:50:35.397Z,23.18
2022-08-26T06:53:17.560Z,23.30
2022-08-26T06:56:04.988Z,23.46
2022-08-26T06:58:47.541Z,23.66
2022-08-26T07:01:33.805Z,23.83
2022-08-26T07:04:20.253Z,24.00
2022-08-26T07:07:04.551Z,24.15
2022-08-26T07:09:47.059Z,24.26
2022-08-26T07:12:32.334Z,24.44
2022-08-26T07:15:15.356Z,24.62
2022-08-26T07:17:57.662Z,24.70
2022-08-26T07:20:40.786Z,24.74
2022-08-26T07:23:24.944Z,24.78
2022-08-26T07:26:10.927Z,24.88
2022-08-26T07:28:57.533Z,25.01
2022-08-26T07:31:42.383Z,25.16
2022-08-26T07:34:25.263Z,25.27
2022-08-26T07:37:08.914Z,25.41
2022-08-26T07:39:51.688Z,25.53
2022-08-26T07:42:34.694Z,25.62
2022-08-26T07:45:17.511Z,25.78
2022-08-26T07:47:59.757Z,25.96
2022-08-26T07:50:50.116Z,26.14
2022-08-26T07:53:34.870Z,26.30
2022-08-26T07:56:16.871Z,26.50
2022-08-26T07:58:59.071Z,26.71
2022-08-26T08:01:41.459Z,26.86
2022-08-26T08:04:27.983Z,26.98
2022-08-26T08:07:11.545Z,27.02
2022-08-26T08:09:54.846Z,27.20
2022-08-26T08:12:38.735Z,27.40
2022-08-26T08:15:25.200Z,27.57
2022-08-26T08:18:07.223Z,27.74
2022-08-26T08:21:10.784Z,27.82
2022-08-26T08:24:00.779Z,27.89
2022-08-26T08:26:42.676Z,28.06
2022-08-26T08:29:25.087Z,28.21
2022-08-26T08:32:11.631Z,28.31
2022-08-26T08:34:57.887Z,28.40
2022-08-26T08:37:41.318Z,28.39
2022-08-26T08:40:26.472Z,28.45
2022-08-26T08:43:38.661Z,28.52
2022-08-26T08:46:20.723Z,28.68
2022-08-26T08:49:04.442Z,28.74
2022-08-26T08:52:02.443Z,28.91
2022-08-26T08:54:46.145Z,29.12
2022-08-26T08:57:55.779Z,29.22
2022-08-26T09:01:14.264Z,29.33
2022-08-26T09:04:02.292Z,29.30
2022-08-26T09:06:50.431Z,29.22
2022-08-26T09:09:47.589Z,29.27
2022-08-26T09:12:36.656Z,29.38
2022-08-26T09:15:35.925Z,29.57
2022-08-26T09:18:53.279Z,29.67
2022-08-26T09:21:37.930Z,29.73
2022-08-26T09:24:24.406Z,29.83
2022-08-26T09:27:41.459Z,29.98
2022-08-26T09:30:36.218Z,30.13
2022-08-26T09:33:31.849Z,30.29
2022-08-26T09:36:37.775Z,30.41
2022-08-26T09:39:29.459Z,30.57
2022-08-26T09:42:16.938Z,30.78
2022-08-26T09:45:04.404Z,30.94
2022-08-26T09:47:57.566Z,31.12
2022-08-26T09:51:24.112Z,31.31
2022-08-26T09:54:08.080Z,31.43
2022-08-26T09:56:50.259Z,31.48
2022-08-26T09:59:32.359Z,31.60
2022-08-26T10:02:30.231Z,31.78
2022-08-26T10:05:20.057Z,31.93
2022-08-26T10:08:42.457Z,31.98
2022-08-26T10:11:48.214Z,32.05
2022-08-26T10:14:49.771Z,32.11
2022-08-26T10:17:42.984Z,32.14
2022-08-26T10:20:37.348Z,32.20
2022-08-26T10:23:24.993Z,32.21
2022-08-26T10:26:16.059Z,32.28
2022-08-26T10:29:09.322Z,32.30
2022-08-26T10:32:02.511Z,32.38
2022-08-26T10:34:45.708Z,32.47
2022-08-26T10:37:37.742Z,32.49
2022-08-26T10:40:28.183Z,32.55
2022-08-26T10:43:17.717Z,32.57
2022-08-26T10:46:06.872Z,32.54
2022-08-26T10:48:56.454Z,32.40
2022-08-26T10:51:56.008Z,32.31
2022-08-26T10:54:39.804Z,32.34
2022-08-26T10:57:43.512Z,32.43
2022-08-26T11:00:55.443Z,32.50
2022-08-26T11:03:54.514Z,32.45
2022-08-26T11:06:40.604Z,32.45
2022-08-26T11:09:45.485Z,32.51
2022-08-26T11:12:37.198Z,32.52
2022-08-26T11:15:27.048Z,32.50
2022-08-26T11:18:12.293Z,32.46
2022-08-26T11:20:54.116Z,32.46
2022-08-26T11:23:50.465Z,32.41
2022-08-26T11:26:56.041Z,32.41
2022-08-26T11:30:02.271Z,32.37
2022-08-26T11:32:59.842Z,32.36
2022-08-26T11:35:46.068Z,32.30
2022-08-26T11:38:30.920Z,32.27
2022-08-26T11:41:21.185Z,32.28
2022-08-26T11:44:07.690Z,32.26
2022-08-26T11:46:59.980Z,32.11
2022-08-26T11:49:41.922Z,32.03
2022-08-26T11:52:25.256Z,31.93
2022-08-26T11:55:12.345Z,31.85
2022-08-26T11:58:00.962Z,31.78
2022-08-26T12:00:59.964Z,31.69
2022-08-26T12:03:44.778Z,31.65
2022-08-26T12:06:34.660Z,31.62
2022-08-26T12:09:28.650Z,31.57
2022-08-26T12:12:17.726Z,31.53
2022-08-26T12:15:20.602Z,31.48
2022-08-26T12:18:28.757Z,31.40
2022-08-26T12:21:22.491Z,31.36
2022-08-26T12:24:06.633Z,31.31
2022-08-26T12:26:48.734Z,31.29
2022-08-26T12:29:30.652Z,31.27
2022-08-26T12:32:18.370Z,31.25
2022-08-26T12:35:09.697Z,31.18
2022-08-26T12:37:55.159Z,31.16
2022-08-26T12:40:43.639Z,31.17
2022-08-26T12:43:46.218Z,31.18
2022-08-26T12:46:30.282Z,31.18
2022-08-26T12:49:12.336Z,31.15
2022-08-26T12:51:54.334Z,31.08
2022-08-26T12:54:56.816Z,31.04
2022-08-26T12:57:39.425Z,31.00
2022-08-26T13:00:37.145Z,31.00
2022-08-26T13:03:29.636Z,31.04
2022-08-26T13:06:31.668Z,31.05
2022-08-26T13:09:19.437Z,31.01
2022-08-26T13:12:02.126Z,31.00
2022-08-26T13:14:44.252Z,31.00
2022-08-26T13:17:30.967Z,31.01
2022-08-26T13:20:13.166Z,30.99
2022-08-26T13:22:59.095Z,30.97
2022-08-26T13:25:41.466Z,30.92
2022-08-26T13:28:23.357Z,30.90
2022-08-26T13:31:05.975Z,30.88
2022-08-26T13:33:48.787Z,30.86
2022-08-26T13:36:31.399Z,30.84
2022-08-26T13:39:13.400Z,30.83
2022-08-26T13:41:55.295Z,30.78
2022-08-26T13:44:39.546Z,30.79
2022-08-26T13:47:22.103Z,30.78
2022-08-26T13:50:05.589Z,30.77
2022-08-26T13:52:47.689Z,30.77
2022-08-26T13:55:29.687Z,30.78
2022-08-26T13:58:12.504Z,30.79
2022-08-26T14:00:56.714Z,30.79
2022-08-26T14:03:39.631Z,30.78
2022-08-26T14:06:21.777Z,30.75
2022-08-26T14:09:04.947Z,30.72
2022-08-26T14:11:53.915Z,30.69
2022-08-26T14:14:36.988Z,30.67
2022-08-26T14:17:22.774Z,30.65
2022-08-26T14:20:07.970Z,30.64
2022-08-26T14:23:12.569Z,30.62
2022-08-26T14:25:52.731Z,30.61
2022-08-26T14:28:35.752Z,30.61
2022-08-26T14:31:18.225Z,30.59
2022-08-26T14:34:03.951Z,30.58
2022-08-26T14:36:45.843Z,30.54
2022-08-26T14:39:27.786Z,30.51
2022-08-26T14:42:10.453Z,30.47
2022-08-26T14:44:56.647Z,30.45
2022-08-26T14:47:38.649Z,30.42
2022-08-26T14:50:26.321Z,30.40
2022-08-26T14:53:27.331Z,30.38
2022-08-26T14:56:13.693Z,30.38
2022-08-26T14:58:58.182Z,30.38
2022-08-26T15:01:40.187Z,30.36
2022-08-26T15:04:23.347Z,30.32
2022-08-26T15:07:05.609Z,30.28
2022-08-26T15:09:47.811Z,30.26
2022-08-26T15:12:32.372Z,30.22
2022-08-26T15:15:17.457Z,30.19
2022-08-26T15:17:59.378Z,30.16
2022-08-26T15:20:41.333Z,30.14
2022-08-26T15:23:23.638Z,30.11
2022-08-26T15:26:10.156Z,30.08
2022-08-26T15:28:52.550Z,30.06
2022-08-26T15:31:35.113Z,30.04
2022-08-26T15:34:17.469Z,30.01
2022-08-26T15:36:59.570Z,29.99
2022-08-26T15:39:43.615Z,29.96
2022-08-26T15:42:25.559Z,29.93
2022-08-26T15:45:07.975Z,29.89
2022-08-26T15:48:01.232Z,29.83
2022-08-26T15:50:58.234Z,29.78
2022-08-26T15:53:40.128Z,29.72
2022-08-26T15:56:28.962Z,29.69
2022-08-26T15:59:13.403Z,29.66
2022-08-26T16:01:57.426Z,29.62
2022-08-26T16:04:39.692Z,29.58
2022-08-26T16:07:21.689Z,29.53
2022-08-26T16:10:04.142Z,29.47
2022-08-26T16:12:47.016Z,29.43
2022-08-26T16:15:29.016Z,29.40
2022-08-26T16:18:11.424Z,29.35
2022-08-26T16:21:12.373Z,29.31
2022-08-26T16:23:57.866Z,29.26
2022-08-26T16:26:42.066Z,29.22
2022-08-26T16:29:24.810Z,29.17
2022-08-26T16:32:09.164Z,29.15
2022-08-26T16:34:56.575Z,29.09
2022-08-26T16:37:39.492Z,29.04
2022-08-26T16:40:22.409Z,28.98
2022-08-26T16:43:04.633Z,28.93
2022-08-26T16:45:46.530Z,28.87
2022-08-26T16:48:28.422Z,28.81
2022-08-26T16:51:16.248Z,28.75
2022-08-26T16:53:59.343Z,28.68
2022-08-26T16:56:41.279Z,28.61
2022-08-26T16:59:24.141Z,28.54
2022-08-26T17:02:06.431Z,28.46
2022-08-26T17:04:50.246Z,28.39
2022-08-26T17:07:32.651Z,28.32
2022-08-26T17:10:14.649Z,28.24
2022-08-26T17:12:57.158Z,28.15
2022-08-26T17:15:39.097Z,28.05
2022-08-26T17:18:27.543Z,27.95
2022-08-26T17:21:12.656Z,27.86
2022-08-26T17:23:55.394Z,27.78
2022-08-26T17:26:38.211Z,27.69
2022-08-26T17:29:20.718Z,27.58
2022-08-26T17:32:03.596Z,27.49
2022-08-26T17:34:45.534Z,27.39
2022-08-26T17:37:28.613Z,27.29
2022-08-26T17:40:16.273Z,27.19
2022-08-26T17:42:59.516Z,27.11
2022-08-26T17:45:42.757Z,27.04
2022-08-26T17:48:24.946Z,26.97
2022-08-26T17:51:13.587Z,26.87
2022-08-26T17:53:56.110Z,26.76
2022-08-26T17:56:38.723Z,26.67
2022-08-26T17:59:20.619Z,26.57
2022-08-26T18:02:04.304Z,26.50
2022-08-26T18:04:48.067Z,26.42
2022-08-26T18:07:31.938Z,26.38
2022-08-26T18:10:21.568Z,26.32
2022-08-26T18:13:03.616Z,26.29
2022-08-26T18:15:47.107Z,26.23
2022-08-26T18:18:29.045Z,26.20
2022-08-26T18:21:16.608Z,26.16
2022-08-26T18:23:58.775Z,26.12
2022-08-26T18:26:48.236Z,26.07
2022-08-26T18:29:30.297Z,26.01
2022-08-26T18:32:12.079Z,25.95
2022-08-26T18:34:53.983Z,25.89
2022-08-26T18:37:35.934Z,25.83
2022-08-26T18:40:17.882Z,25.77
2022-08-26T18:43:00.958Z,25.71
2022-08-26T18:45:44.735Z,25.65
2022-08-26T18:48:27.000Z,25.59
2022-08-26T18:51:15.243Z,25.55
2022-08-26T18:53:57.963Z,25.50
2022-08-26T18:56:40.883Z,25.46
2022-08-26T18:59:28.389Z,25.43
2022-08-26T19:02:12.968Z,25.43
2022-08-26T19:04:55.066Z,25.42
2022-08-26T19:07:39.616Z,25.42
2022-08-26T19:10:28.380Z,25.40
2022-08-26T19:13:10.457Z,25.37
2022-08-26T19:15:52.699Z,25.34
2022-08-26T19:18:45.251Z,25.30
2022-08-26T19:21:39.489Z,25.26
2022-08-26T19:24:27.302Z,25.22
2022-08-26T19:27:16.823Z,25.18
2022-08-26T19:30:00.357Z,25.15
2022-08-26T19:32:42.355Z,25.12
2022-08-26T19:35:24.252Z,25.09
2022-08-26T19:38:07.990Z,25.06
2022-08-26T19:40:49.989Z,25.03
2022-08-26T19:43:32.805Z,25.00
2022-08-26T19:46:18.688Z,24.95
2022-08-26T19:49:04.615Z,24.91
2022-08-26T19:51:48.324Z,24.87
2022-08-26T19:54:30.835Z,24.81
2022-08-26T19:57:12.934Z,24.76
2022-08-26T19:59:55.240Z,24.71
2022-08-26T20:02:37.900Z,24.66
2022-08-26T20:05:23.003Z,24.61
2022-08-26T20:08:05.516Z,24.56
2022-08-26T20:10:49.219Z,24.51
2022-08-26T20:13:32.050Z,24.48
2022-08-26T20:16:15.336Z,24.44
2022-08-26T20:19:17.591Z,24.41
2022-08-26T20:22:00.204Z,24.36
2022-08-26T20:24:42.201Z,24.31
2022-08-26T20:27:38.142Z,24.25
2022-08-26T20:30:22.484Z,24.22
2022-08-26T20:33:04.584Z,24.18
2022-08-26T20:35:47.140Z,24.13
2022-08-26T20:38:29.089Z,24.05
2022-08-26T20:41:11.983Z,24.00
2022-08-26T20:43:55.544Z,23.96
2022-08-26T20:46:37.974Z,23.94
2022-08-26T20:49:19.994Z,23.89
2022-08-26T20:52:03.559Z,23.85
2022-08-26T20:54:45.457Z,23.82
2022-08-26T20:57:27.322Z,23.78
2022-08-26T21:00:12.343Z,23.73
2022-08-26T21:02:56.904Z,23.68
2022-08-26T21:05:38.799Z,23.64
2022-08-26T21:08:21.513Z,23.60
2022-08-26T21:11:03.901Z,23.57
2022-08-26T21:14:04.516Z,23.54
2022-08-26T21:16:51.545Z,23.50
2022-08-26T21:19:34.287Z,23.47
2022-08-26T21:22:16.421Z,23.45
2022-08-26T21:24:58.693Z,23.44
2022-08-26T21:27:40.588Z,23.42
2022-08-26T21:30:23.202Z,23.40
2022-08-26T21:33:05.301Z,23.39
2022-08-26T21:35:54.452Z,23.38
2022-08-26T21:38:37.216Z,23.38
2022-08-26T21:41:22.231Z,23.37
2022-08-26T21:44:04.457Z,23.36
2022-08-26T21:46:47.124Z,23.36
2022-08-26T21:49:29.068Z,23.34
2022-08-26T21:52:12.977Z,23.33
2022-08-26T21:55:00.025Z,23.31
2022-08-26T21:57:42.129Z,23.28
2022-08-26T22:00:24.536Z,23.27
2022-08-26T22:03:06.377Z,23.24
2022-08-26T22:05:52.388Z,23.20
2022-08-26T22:08:34.878Z,23.16
2022-08-26T22:11:18.864Z,23.13
2022-08-26T22:14:00.779Z,23.09
2022-08-26T22:16:44.468Z,23.06
2022-08-26T22:19:34.063Z,23.04
2022-08-26T22:22:23.354Z,23.01
2022-08-26T22:25:05.753Z,22.95
2022-08-26T22:27:47.614Z,22.90
2022-08-26T22:30:29.496Z,22.86
2022-08-26T22:33:11.428Z,22.82
2022-08-26T22:35:53.296Z,22.79
2022-08-26T22:38:35.109Z,22.75
2022-08-26T22:41:18.398Z,22.73
2022-08-26T22:44:02.793Z,22.71
2022-08-26T22:46:46.458Z,22.70
2022-08-26T22:49:28.778Z,22.69
2022-08-26T22:52:10.706Z,22.67
2022-08-26T22:54:53.476Z,22.65
2022-08-26T22:57:35.372Z,22.62
2022-08-26T23:00:17.372Z,22.60
2022-08-26T23:03:00.544Z,22.55
2022-08-26T23:05:44.234Z,22.51
2022-08-26T23:08:27.872Z,22.49
2022-08-26T23:11:11.863Z,22.45
2022-08-26T23:13:53.709Z,22.38
2022-08-26T23:16:39.358Z,22.33
2022-08-26T23:19:22.826Z,22.27
2022-08-26T23:22:04.824Z,22.19
2022-08-26T23:24:46.724Z,22.12
2022-08-26T23:27:29.596Z,22.08
2022-08-26T23:30:16.212Z,22.03
2022-08-26T23:32:58.490Z,22.01
2022-08-26T23:35:40.756Z,21.99
2022-08-26T23:38:23.166Z,21.97
2022-08-26T23:41:05.160Z,21.95
2022-08-26T23:43:47.933Z,21.91
2022-08-26T23:46:29.875Z,21.86
2022-08-26T23:49:11.974Z,21.80
2022-08-26T23:52:13.376Z,21.72
2022-08-26T23:54:55.733Z,21.65
2022-08-26T23:57:38.246Z,21.59
